Time;durP1;ratioP1;P1;durP2;ratioP2;P2;SDS_P1;SDS_P2;PMS_P1;PMS_P2;Temp;Humidity;BMP_temperature;BMP_pressure;BME280_temperature;BME280_humidity;BME280_pressure;Samples;Min_cycle;Max_cycle;Signal;HPM_P1;HPM_P2
2021/07/16 00:01:30;;;;;;;10.10;6.35;;;17.10;99.90;;;;;;5050271;28;20091;-84
2021/07/16 00:03:57;;;;;;;9.43;6.53;;;17.10;99.90;;;;;;5043763;28;20025;-84
2021/07/16 00:06:23;;;;;;;7.38;5.93;;;17.10;99.90;;;;;;5049261;28;20045;-85
2021/07/16 00:08:49;;;;;;;7.95;5.47;;;17.10;99.90;;;;;;5050416;28;20122;-84
2021/07/16 00:11:28;;;;;;;8.25;4.97;;;17.10;99.90;;;;;;5051151;28;20083;-84
2021/07/16 00:13:54;;;;;;;7.32;5.13;;;17.20;99.90;;;;;;5054455;28;20110;-85
2021/07/16 00:16:20;;;;;;;10.50;5.20;;;17.10;99.90;;;;;;5074701;28;20085;-84
2021/07/16 00:18:46;;;;;;;8.23;5.18;;;17.10;99.90;;;;;;5073198;28;20017;-83
2021/07/16 00:21:13;;;;;;;6.15;4.70;;;17.10;99.90;;;;;;5057292;28;20116;-84
2021/07/16 00:23:39;;;;;;;9.88;4.80;;;17.10;99.90;;;;;;5054233;28;20033;-83
2021/07/16 00:26:05;;;;;;;7.15;5.30;;;17.10;99.90;;;;;;5056225;28;20077;-85
2021/07/16 00:28:31;;;;;;;8.88;5.25;;;17.10;99.90;;;;;;5054794;28;20029;-85
2021/07/16 00:30:56;;;;;;;7.57;4.70;;;17.10;99.90;;;;;;5054374;28;20025;-87
2021/07/16 00:33:23;;;;;;;10.93;6.10;;;17.10;99.90;;;;;;5038010;28;20089;-84
2021/07/16 00:35:49;;;;;;;9.48;6.43;;;17.10;99.90;;;;;;5051967;28;20092;-83
2021/07/16 00:38:15;;;;;;;10.30;6.00;;;17.00;99.90;;;;;;5044531;28;20361;-85
2021/07/16 00:40:42;;;;;;;8.30;5.40;;;17.00;99.90;;;;;;5044606;28;20022;-85
2021/07/16 00:43:10;;;;;;;8.98;6.18;;;17.00;99.90;;;;;;5047099;28;20065;-87
2021/07/16 00:45:36;;;;;;;8.50;5.80;;;17.00;99.90;;;;;;5047285;28;20547;-86
2021/07/16 00:48:02;;;;;;;9.80;6.50;;;17.00;99.90;;;;;;5044144;28;20025;-84
2021/07/16 00:50:33;;;;;;;9.98;6.25;;;17.00;99.90;;;;;;5040803;28;20049;-84
2021/07/16 00:53:00;;;;;;;9.05;6.20;;;17.00;99.90;;;;;;5049021;28;20032;-85
2021/07/16 00:55:28;;;;;;;8.55;5.95;;;17.00;99.90;;;;;;5048614;28;20182;-86
2021/07/16 00:57:55;;;;;;;9.60;6.05;;;17.00;99.90;;;;;;5022917;28;20044;-85
2021/07/16 01:00:26;;;;;;;10.55;7.15;;;17.00;99.90;;;;;;5055294;28;20098;-85
2021/07/16 01:02:52;;;;;;;8.85;5.95;;;17.00;99.90;;;;;;5034650;28;20029;-85
2021/07/16 01:05:19;;;;;;;11.82;6.85;;;17.00;99.90;;;;;;5049934;28;20037;-86
2021/07/16 01:07:47;;;;;;;12.13;7.03;;;17.00;99.90;;;;;;5043152;28;20033;-85
2021/07/16 01:10:14;;;;;;;12.02;6.95;;;17.00;99.90;;;;;;5048730;28;20488;-84
2021/07/16 01:12:42;;;;;;;13.20;8.32;;;17.00;99.90;;;;;;5037850;28;20078;-85
2021/07/16 01:15:14;;;;;;;10.52;7.35;;;17.00;99.90;;;;;;5034956;28;20030;-85
2021/07/16 01:17:40;;;;;;;10.55;6.82;;;16.90;99.90;;;;;;5036032;28;20100;-84
2021/07/16 01:20:10;;;;;;;15.00;7.20;;;17.00;99.90;;;;;;5030043;28;20490;-86
2021/07/16 01:22:38;;;;;;;8.38;5.97;;;17.00;99.90;;;;;;5038297;28;20393;-84
2021/07/16 01:25:12;;;;;;;9.48;6.65;;;17.00;99.90;;;;;;5044758;28;20029;-86
2021/07/16 01:27:40;;;;;;;10.05;6.22;;;17.00;99.90;;;;;;5030078;28;20057;-85
2021/07/16 01:30:11;;;;;;;10.90;7.07;;;17.00;99.90;;;;;;5045690;28;20495;-85
2021/07/16 01:32:37;;;;;;;11.40;7.07;;;17.00;99.90;;;;;;5038118;28;20030;-85
2021/07/16 01:35:05;;;;;;;10.95;7.13;;;17.00;99.90;;;;;;5040833;28;20059;-83
2021/07/16 01:37:31;;;;;;;10.32;6.65;;;17.00;99.90;;;;;;5046100;28;20067;-84
2021/07/16 01:40:00;;;;;;;10.85;7.05;;;17.00;99.90;;;;;;5049129;28;20025;-84
2021/07/16 01:42:40;;;;;;;11.07;7.10;;;16.90;99.90;;;;;;5048139;28;20032;-85
2021/07/16 01:45:11;;;;;;;9.25;6.25;;;17.00;99.90;;;;;;5049694;28;20044;-83
2021/07/16 01:47:53;;;;;;;11.88;6.65;;;16.90;99.90;;;;;;5048285;28;20025;-85
2021/07/16 01:50:19;;;;;;;11.27;6.93;;;16.90;99.90;;;;;;5051180;28;20017;-83
2021/07/16 01:52:46;;;;;;;9.60;6.75;;;16.90;99.90;;;;;;5054919;28;20032;-84
2021/07/16 01:55:14;;;;;;;8.65;6.82;;;16.90;99.90;;;;;;5054114;28;20049;-84
2021/07/16 01:57:46;;;;;;;10.43;6.57;;;16.90;99.90;;;;;;5060210;28;20090;-85
2021/07/16 02:00:14;;;;;;;13.55;7.65;;;16.90;99.90;;;;;;5076979;28;20028;-84
2021/07/16 02:02:51;;;;;;;12.68;7.75;;;16.90;99.90;;;;;;5071814;28;20024;-85
2021/07/16 02:05:17;;;;;;;10.70;6.70;;;16.90;99.90;;;;;;5079160;28;20097;-86
2021/07/16 02:07:47;;;;;;;11.25;7.13;;;16.80;99.90;;;;;;5061715;28;20029;-86
2021/07/16 02:10:14;;;;;;;9.65;7.00;;;16.80;99.90;;;;;;5059763;28;20120;-87
2021/07/16 02:12:40;;;;;;;12.32;7.20;;;16.90;99.90;;;;;;5060305;28;20100;-85
2021/07/16 02:15:20;;;;;;;13.30;6.75;;;16.90;99.90;;;;;;5059648;28;20056;-85
2021/07/16 02:17:48;;;;;;;12.50;6.57;;;16.80;99.90;;;;;;5044336;28;20106;-85
2021/07/16 02:20:30;;;;;;;8.95;6.57;;;16.80;99.90;;;;;;5064980;28;20395;-82
2021/07/16 02:22:58;;;;;;;10.95;7.30;;;16.80;99.90;;;;;;5067174;28;20070;-83
2021/07/16 02:25:26;;;;;;;12.85;7.72;;;16.80;99.90;;;;;;5047035;28;20029;-83
2021/07/16 02:27:57;;;;;;;12.20;7.28;;;16.70;99.90;;;;;;5065589;28;20428;-84
2021/07/16 02:30:28;;;;;;;14.52;7.97;;;16.70;99.90;;;;;;5059224;28;20021;-84
2021/07/16 02:32:55;;;;;;;10.43;7.10;;;16.70;99.90;;;;;;5057742;28;20017;-86
2021/07/16 02:35:22;;;;;;;17.27;7.35;;;16.70;99.90;;;;;;5057606;28;20048;-84
2021/07/16 02:37:50;;;;;;;13.60;8.05;;;16.70;99.90;;;;;;5057653;28;20511;-84
2021/07/16 02:40:17;;;;;;;10.13;6.75;;;16.60;99.90;;;;;;5059119;28;20025;-86
2021/07/16 02:42:44;;;;;;;10.52;6.60;;;16.70;99.90;;;;;;5057485;28;20033;-86
2021/07/16 02:45:14;;;;;;;11.63;7.50;;;16.60;99.90;;;;;;5058601;28;20033;-84
2021/07/16 02:47:40;;;;;;;10.65;6.82;;;16.60;99.90;;;;;;5040368;28;20044;-85
2021/07/16 02:50:07;;;;;;;12.70;6.97;;;16.60;99.90;;;;;;5058935;28;20025;-86
2021/07/16 02:52:33;;;;;;;13.30;7.00;;;16.60;99.90;;;;;;5058887;28;20021;-85
2021/07/16 02:54:58;;;;;;;11.38;6.70;;;16.60;99.90;;;;;;5040586;28;20103;-86
2021/07/16 02:57:24;;;;;;;11.80;7.00;;;16.60;99.90;;;;;;5057755;28;20025;-84
2021/07/16 02:59:51;;;;;;;13.63;7.63;;;16.60;99.90;;;;;;5055872;28;20029;-86
2021/07/16 03:02:17;;;;;;;10.98;7.43;;;16.60;99.90;;;;;;5058732;28;20113;-84
2021/07/16 03:04:46;;;;;;;14.70;7.25;;;16.60;99.90;;;;;;5056299;28;20058;-85
2021/07/16 03:07:11;;;;;;;13.45;6.68;;;16.50;99.90;;;;;;5057953;28;20473;-84
2021/07/16 03:09:37;;;;;;;10.20;7.03;;;16.50;99.90;;;;;;5057181;28;20032;-85
2021/07/16 03:12:04;;;;;;;10.43;6.68;;;16.40;99.90;;;;;;5055676;28;20033;-85
2021/07/16 03:14:30;;;;;;;11.63;7.03;;;16.40;99.90;;;;;;5056914;28;20037;-85
2021/07/16 03:16:56;;;;;;;12.30;7.57;;;16.40;99.90;;;;;;5039232;28;20468;-86
2021/07/16 03:19:22;;;;;;;13.13;7.68;;;16.50;99.90;;;;;;5056985;28;20020;-83
2021/07/16 03:21:48;;;;;;;13.70;7.25;;;16.40;99.90;;;;;;5055076;28;20036;-86
2021/07/16 03:24:14;;;;;;;10.60;6.60;;;16.40;99.90;;;;;;5056095;28;20536;-85
2021/07/16 03:26:41;;;;;;;9.63;6.32;;;16.40;99.90;;;;;;5055737;28;20162;-85
2021/07/16 03:29:07;;;;;;;10.55;6.30;;;16.40;99.90;;;;;;5055941;28;20036;-86
2021/07/16 03:31:32;;;;;;;8.70;5.88;;;16.40;99.90;;;;;;5056239;28;20025;-85
2021/07/16 03:33:58;;;;;;;10.43;6.03;;;16.40;99.90;;;;;;5057648;28;20037;-85
2021/07/16 03:36:24;;;;;;;13.07;6.50;;;16.40;99.90;;;;;;5055471;28;20033;-86
2021/07/16 03:38:52;;;;;;;10.02;6.10;;;16.40;99.90;;;;;;5055194;28;20025;-85
2021/07/16 03:41:18;;;;;;;14.00;7.10;;;16.40;99.90;;;;;;5055801;28;20097;-85
2021/07/16 03:43:43;;;;;;;9.02;5.65;;;16.30;99.90;;;;;;5055647;28;20484;-84
2021/07/16 03:46:09;;;;;;;14.73;6.63;;;16.30;99.90;;;;;;5055959;28;20116;-84
2021/07/16 03:48:35;;;;;;;11.80;6.78;;;16.30;99.90;;;;;;5057571;28;20032;-84
2021/07/16 03:51:01;;;;;;;11.23;6.43;;;16.30;99.90;;;;;;5061503;28;20025;-84
2021/07/16 03:53:28;;;;;;;9.27;6.43;;;16.30;99.90;;;;;;5074185;28;20023;-85
2021/07/16 03:55:53;;;;;;;10.20;6.07;;;16.30;99.90;;;;;;5075145;28;20037;-84
2021/07/16 03:58:20;;;;;;;9.50;6.20;;;16.30;99.90;;;;;;5056691;28;20392;-85
2021/07/16 04:00:48;;;;;;;11.43;6.10;;;16.30;99.90;;;;;;5068329;28;20468;-84
2021/07/16 04:03:16;;;;;;;13.40;6.68;;;16.30;99.90;;;;;;5060396;28;20072;-84
2021/07/16 04:05:42;;;;;;;12.07;5.25;;;16.30;99.90;;;;;;5054141;28;20492;-85
2021/07/16 04:08:10;;;;;;;10.30;5.93;;;16.30;99.90;;;;;;5054421;28;20056;-84
2021/07/16 04:10:38;;;;;;;9.45;5.70;;;16.30;99.90;;;;;;5038643;28;20388;-84
2021/07/16 04:13:07;;;;;;;9.32;6.25;;;16.30;99.90;;;;;;5054068;28;20461;-85
2021/07/16 04:15:33;;;;;;;10.88;5.88;;;16.30;99.90;;;;;;5038236;28;20044;-83
2021/07/16 04:18:00;;;;;;;13.27;6.70;;;16.30;99.90;;;;;;5054316;28;20036;-84
2021/07/16 04:20:27;;;;;;;9.80;5.82;;;16.30;99.90;;;;;;5055948;28;20088;-84
2021/07/16 04:22:57;;;;;;;12.00;5.85;;;16.30;99.90;;;;;;5054632;28;20395;-85
2021/07/16 04:25:24;;;;;;;14.95;6.07;;;16.40;99.90;;;;;;5054448;28;20548;-85
2021/07/16 04:27:54;;;;;;;11.05;6.03;;;16.30;99.90;;;;;;5054671;28;20033;-83
2021/07/16 04:30:23;;;;;;;10.85;6.10;;;16.30;99.90;;;;;;5054907;28;20079;-84
2021/07/16 04:32:53;;;;;;;15.15;6.18;;;16.30;99.90;;;;;;5056470;28;20017;-84
2021/07/16 04:35:20;;;;;;;11.40;5.85;;;16.30;99.90;;;;;;5056196;28;20036;-83
2021/07/16 04:37:47;;;;;;;9.13;5.55;;;16.30;99.90;;;;;;5055639;28;20043;-84
2021/07/16 04:40:15;;;;;;;8.93;4.95;;;16.30;99.90;;;;;;5054744;28;20419;-85
2021/07/16 04:42:41;;;;;;;9.45;5.53;;;16.40;99.90;;;;;;5054623;28;20428;-84
2021/07/16 04:45:08;;;;;;;9.80;4.70;;;16.40;99.90;;;;;;5055820;28;20036;-84
2021/07/16 04:47:34;;;;;;;9.57;4.82;;;16.40;99.90;;;;;;5053622;28;20056;-85
2021/07/16 04:49:59;;;;;;;9.95;4.88;;;16.40;99.90;;;;;;5055677;28;20078;-84
2021/07/16 04:52:25;;;;;;;11.43;5.72;;;16.50;99.90;;;;;;5056047;28;20086;-86
2021/07/16 04:54:51;;;;;;;9.45;4.80;;;16.50;99.90;;;;;;5053937;28;20404;-84
2021/07/16 04:57:30;;;;;;;8.32;5.00;;;16.50;99.90;;;;;;5054788;28;20039;-83
2021/07/16 04:59:55;;;;;;;10.43;4.38;;;16.50;99.90;;;;;;5055151;28;20043;-85
2021/07/16 05:02:21;;;;;;;10.90;4.25;;;16.50;99.90;;;;;;5055827;28;20050;-84
2021/07/16 05:04:47;;;;;;;8.07;4.47;;;16.50;99.90;;;;;;5053740;28;20123;-86
2021/07/16 05:07:14;;;;;;;13.60;5.28;;;16.50;99.90;;;;;;5037369;28;20064;-85
2021/07/16 05:09:40;;;;;;;11.98;4.60;;;16.50;99.90;;;;;;5054355;28;20361;-85
2021/07/16 05:12:06;;;;;;;9.65;4.20;;;16.50;99.90;;;;;;5041639;28;20032;-85
2021/07/16 05:14:33;;;;;;;9.43;4.45;;;16.50;99.90;;;;;;5057786;28;20064;-85
2021/07/16 05:16:58;;;;;;;13.32;5.20;;;16.50;99.90;;;;;;5060602;28;20082;-85
2021/07/16 05:19:24;;;;;;;9.43;4.50;;;16.60;99.90;;;;;;5059805;28;20063;-85
2021/07/16 05:21:50;;;;;;;13.98;4.80;;;16.60;99.90;;;;;;5060456;28;20101;-85
2021/07/16 05:24:15;;;;;;;12.07;5.15;;;16.60;99.90;;;;;;5059176;28;20029;-83
2021/07/16 05:26:47;;;;;;;15.35;4.70;;;16.70;99.90;;;;;;5057569;28;20127;-85
2021/07/16 05:29:12;;;;;;;9.55;4.35;;;16.70;99.90;;;;;;5058474;28;20046;-85
2021/07/16 05:31:39;;;;;;;12.55;5.32;;;16.70;99.90;;;;;;5058341;28;20036;-84
2021/07/16 05:34:06;;;;;;;8.02;3.67;;;16.80;99.90;;;;;;5059573;28;20033;-82
2021/07/16 05:36:32;;;;;;;11.02;4.25;;;16.80;99.90;;;;;;5060332;28;20068;-85
2021/07/16 05:39:04;;;;;;;7.50;4.18;;;16.90;99.90;;;;;;5058606;28;20083;-84
2021/07/16 05:41:29;;;;;;;10.73;3.75;;;16.80;99.90;;;;;;5062171;28;20109;-83
2021/07/16 05:43:55;;;;;;;12.20;4.57;;;16.90;99.90;;;;;;5068458;28;20060;-81
2021/07/16 05:46:23;;;;;;;10.32;4.80;;;16.90;99.90;;;;;;5071255;28;20108;-83
2021/07/16 05:48:50;;;;;;;7.65;3.63;;;17.00;99.90;;;;;;5060651;28;20067;-82
2021/07/16 05:51:18;;;;;;;10.02;3.75;;;17.00;99.90;;;;;;5057700;28;20021;-83
2021/07/16 05:53:47;;;;;;;11.18;3.88;;;17.00;99.90;;;;;;5049403;28;20071;-84
2021/07/16 05:56:19;;;;;;;9.90;3.83;;;17.10;99.90;;;;;;5048300;28;20077;-84
2021/07/16 05:58:45;;;;;;;9.30;3.75;;;17.20;99.90;;;;;;5048536;28;20028;-85
2021/07/16 06:01:10;;;;;;;8.80;4.38;;;17.30;99.90;;;;;;5054682;28;20021;-84
2021/07/16 06:03:36;;;;;;;11.07;4.05;;;17.50;99.90;;;;;;5038591;28;20033;-85
2021/07/16 06:06:03;;;;;;;8.77;4.30;;;17.60;99.90;;;;;;5040229;28;20045;-86
2021/07/16 06:08:29;;;;;;;10.02;4.03;;;17.70;99.90;;;;;;5048386;28;20029;-85
2021/07/16 06:10:54;;;;;;;10.20;3.72;;;17.70;99.90;;;;;;5026457;28;20460;-85
2021/07/16 06:13:21;;;;;;;10.90;3.65;;;17.80;99.90;;;;;;5041195;28;20125;-84
2021/07/16 06:15:47;;;;;;;11.93;3.70;;;17.90;99.90;;;;;;5038298;28;20120;-84
2021/07/16 06:18:12;;;;;;;10.15;3.47;;;17.90;99.90;;;;;;5005641;28;20053;-84
2021/07/16 06:20:44;;;;;;;7.05;3.28;;;17.80;99.90;;;;;;5038845;28;20026;-85
2021/07/16 06:23:11;;;;;;;10.35;4.45;;;17.80;99.90;;;;;;5037690;28;20026;-85
2021/07/16 06:25:36;;;;;;;13.98;4.15;;;17.70;99.90;;;;;;5038220;28;20108;-84
2021/07/16 06:28:03;;;;;;;10.27;4.00;;;17.60;99.90;;;;;;5039430;28;20033;-84
2021/07/16 06:30:32;;;;;;;11.98;3.90;;;17.60;99.90;;;;;;5038322;28;20024;-85
2021/07/16 06:33:03;;;;;;;9.88;3.72;;;17.50;99.90;;;;;;5037155;28;20029;-85
2021/07/16 06:35:33;;;;;;;7.75;3.70;;;17.50;99.90;;;;;;5037161;28;20065;-83
2021/07/16 06:38:01;;;;;;;11.43;3.85;;;17.50;99.90;;;;;;5021156;28;20477;-83
2021/07/16 06:40:28;;;;;;;10.75;3.60;;;17.50;99.90;;;;;;5037169;28;20202;-83
2021/07/16 06:42:54;;;;;;;9.63;3.70;;;17.60;99.90;;;;;;5020635;28;20026;-84
2021/07/16 06:45:20;;;;;;;11.32;4.32;;;17.60;99.90;;;;;;5040218;28;20025;-84
2021/07/16 06:47:46;;;;;;;10.07;3.65;;;17.60;99.90;;;;;;5037339;28;20022;-83
2021/07/16 06:50:11;;;;;;;10.45;3.67;;;17.60;99.90;;;;;;5037886;28;20142;-85
2021/07/16 06:52:37;;;;;;;11.02;4.10;;;17.70;99.90;;;;;;5039610;28;20060;-83
2021/07/16 06:55:03;;;;;;;13.25;4.32;;;17.80;99.90;;;;;;5038519;28;20029;-83
2021/07/16 06:57:29;;;;;;;12.73;4.53;;;17.80;99.90;;;;;;5037472;28;20032;-84
2021/07/16 06:59:55;;;;;;;10.65;4.18;;;18.00;99.90;;;;;;5039495;28;20443;-83
2021/07/16 07:02:33;;;;;;;12.60;3.95;;;18.10;99.90;;;;;;5040272;28;20020;-84
2021/07/16 07:04:59;;;;;;;10.65;3.50;;;18.20;99.90;;;;;;5039027;28;20028;-84
2021/07/16 07:07:25;;;;;;;12.00;4.05;;;18.30;99.90;;;;;;5039319;28;20100;-83
2021/07/16 07:09:51;;;;;;;9.77;3.63;;;18.30;99.90;;;;;;5038628;28;20063;-83
2021/07/16 07:12:19;;;;;;;8.80;3.55;;;18.30;99.90;;;;;;5038725;28;20040;-82
2021/07/16 07:14:52;;;;;;;10.75;3.45;;;18.30;99.90;;;;;;5039457;28;20025;-83
2021/07/16 07:17:21;;;;;;;9.88;3.65;;;18.30;99.90;;;;;;5040567;28;20029;-81
2021/07/16 07:19:47;;;;;;;8.77;3.45;;;18.30;99.90;;;;;;5049353;28;20036;-81
2021/07/16 07:22:14;;;;;;;9.88;3.13;;;18.30;99.90;;;;;;5032532;28;20029;-81
2021/07/16 07:24:39;;;;;;;14.07;4.07;;;18.30;99.90;;;;;;5044071;28;20025;-84
2021/07/16 07:27:05;;;;;;;11.63;3.70;;;18.30;99.90;;;;;;5036249;28;20461;-84
2021/07/16 07:29:33;;;;;;;8.82;3.42;;;18.30;99.90;;;;;;5037198;28;20060;-86
2021/07/16 07:31:59;;;;;;;11.45;4.13;;;18.40;99.90;;;;;;5026193;28;20033;-84
2021/07/16 07:34:25;;;;;;;10.52;3.30;;;18.30;99.90;;;;;;5050270;28;20030;-84
2021/07/16 07:36:52;;;;;;;11.27;3.70;;;18.30;99.90;;;;;;5049841;28;20033;-84
2021/07/16 07:39:19;;;;;;;9.68;3.83;;;18.30;99.90;;;;;;5037908;28;20029;-84
2021/07/16 07:41:47;;;;;;;11.00;3.72;;;18.40;99.90;;;;;;5037299;28;20485;-85
2021/07/16 07:44:17;;;;;;;13.60;3.97;;;18.40;99.90;;;;;;5021113;28;20038;-85
2021/07/16 07:46:44;;;;;;;10.27;4.28;;;18.50;99.90;;;;;;5020907;28;20029;-85
2021/07/16 07:49:13;;;;;;;9.35;3.95;;;18.50;99.90;;;;;;5036274;28;20026;-84
2021/07/16 07:51:45;;;;;;;11.38;3.58;;;18.60;99.90;;;;;;5036877;28;20029;-84
2021/07/16 07:54:12;;;;;;;15.98;3.95;;;18.50;99.90;;;;;;5020205;28;20045;-84
2021/07/16 07:56:41;;;;;;;11.02;4.10;;;18.40;99.90;;;;;;5038294;28;20098;-84
2021/07/16 07:59:16;;;;;;;11.52;4.28;;;18.40;99.90;;;;;;5037017;28;20109;-84
2021/07/16 08:01:42;;;;;;;11.52;3.72;;;18.40;99.90;;;;;;5037659;28;20022;-84
2021/07/16 08:04:07;;;;;;;13.75;4.10;;;18.30;99.90;;;;;;5020776;28;20401;-83
2021/07/16 08:06:36;;;;;;;10.85;3.90;;;18.40;99.90;;;;;;5037985;28;20055;-84
2021/07/16 08:09:15;;;;;;;10.15;3.85;;;18.50;99.90;;;;;;5039992;28;20382;-83
2021/07/16 08:11:41;;;;;;;11.90;3.65;;;18.60;99.90;;;;;;5067205;28;20022;-83
2021/07/16 08:14:09;;;;;;;12.90;4.03;;;18.60;99.90;;;;;;5056693;28;20457;-84
2021/07/16 08:16:36;;;;;;;9.30;4.22;;;18.70;99.90;;;;;;5063319;28;20057;-83
2021/07/16 08:19:06;;;;;;;11.60;3.90;;;18.70;99.90;;;;;;5050705;28;20089;-83
2021/07/16 08:21:32;;;;;;;12.23;4.07;;;18.80;99.90;;;;;;5043681;28;20512;-83
2021/07/16 08:24:05;;;;;;;11.52;3.80;;;18.80;99.90;;;;;;5047917;28;20024;-84
2021/07/16 08:26:32;;;;;;;14.50;3.33;;;18.90;99.90;;;;;;5039065;28;20469;-85
2021/07/16 08:29:02;;;;;;;12.00;3.95;;;19.10;99.90;;;;;;5055125;28;20045;-82
2021/07/16 08:31:31;;;;;;;16.13;4.35;;;19.20;99.90;;;;;;5053702;28;20021;-83
2021/07/16 08:33:56;;;;;;;13.70;4.28;;;19.30;99.90;;;;;;5055192;28;20028;-83
2021/07/16 08:36:22;;;;;;;13.80;4.10;;;19.30;99.90;;;;;;5056673;28;20033;-83
2021/07/16 08:39:08;;;;;;;11.55;3.90;;;19.50;99.90;;;;;;5057206;28;20021;-83
2021/07/16 08:41:34;;;;;;;11.55;3.97;;;19.60;99.90;;;;;;5056454;28;20033;-84
2021/07/16 08:44:00;;;;;;;13.50;4.25;;;19.50;99.90;;;;;;5054728;28;20033;-83
2021/07/16 08:46:27;;;;;;;10.50;3.40;;;19.50;99.90;;;;;;5055975;28;20051;-83
2021/07/16 08:48:58;;;;;;;13.80;4.25;;;19.50;99.90;;;;;;5054318;28;20025;-83
2021/07/16 08:51:24;;;;;;;12.35;3.85;;;19.60;99.90;;;;;;5053155;28;20017;-82
2021/07/16 08:53:53;;;;;;;13.60;4.38;;;19.80;99.90;;;;;;5044285;28;20479;-81
2021/07/16 08:56:35;;;;;;;11.93;3.95;;;20.10;99.90;;;;;;5054956;28;20065;-83
2021/07/16 08:59:09;;;;;;;14.32;4.22;;;20.50;99.90;;;;;;5050048;28;20060;-82
2021/07/16 09:01:46;;;;;;;16.27;4.13;;;20.70;99.90;;;;;;5040479;28;20032;-84
2021/07/16 09:04:13;;;;;;;11.43;4.00;;;20.60;99.90;;;;;;5042354;28;20477;-83
2021/07/16 09:06:46;;;;;;;14.60;4.07;;;20.50;99.90;;;;;;5040231;28;20053;-82
2021/07/16 09:09:26;;;;;;;15.48;3.88;;;20.40;99.90;;;;;;5039864;28;20048;-83
2021/07/16 09:11:56;;;;;;;13.30;3.58;;;20.50;99.90;;;;;;5043163;28;20401;-83
2021/07/16 09:14:27;;;;;;;13.48;3.90;;;20.60;99.90;;;;;;5036779;28;20420;-81
2021/07/16 09:17:09;;;;;;;17.08;4.53;;;20.90;99.90;;;;;;5043967;28;20033;-82
2021/07/16 09:19:38;;;;;;;14.52;4.10;;;21.00;99.90;;;;;;5052496;28;20025;-83
2021/07/16 09:22:21;;;;;;;18.33;4.60;;;21.20;99.90;;;;;;5055319;28;20036;-82
2021/07/16 09:25:05;;;;;;;12.50;4.40;;;21.30;99.90;;;;;;5065711;28;20021;-80
2021/07/16 09:27:36;;;;;;;12.13;4.10;;;21.40;99.90;;;;;;5067248;28;20029;-83
2021/07/16 09:30:22;;;;;;;14.65;4.43;;;21.20;99.90;;;;;;5052728;28;20132;-82
2021/07/16 09:33:24;;;;;;;11.93;3.35;;;20.90;99.90;;;;;;5047018;28;20037;-82
2021/07/16 09:35:53;;;;;;;17.55;4.32;;;20.60;99.90;;;;;;5032959;28;20060;-83
2021/07/16 09:38:19;;;;;;;12.85;4.00;;;20.60;99.90;;;;;;5034091;28;20045;-83
2021/07/16 09:40:46;;;;;;;14.88;4.55;;;20.40;99.90;;;;;;5033760;28;20026;-83
2021/07/16 09:43:17;;;;;;;12.70;4.03;;;20.20;99.90;;;;;;5034706;28;20059;-83
2021/07/16 09:46:05;;;;;;;12.43;3.63;;;20.10;99.90;;;;;;5047314;28;20033;-83
2021/07/16 09:48:36;;;;;;;14.05;4.55;;;19.90;99.90;;;;;;5032376;28;20351;-83
2021/07/16 09:51:25;;;;;;;10.05;3.47;;;19.70;99.90;;;;;;5033680;28;20026;-82
2021/07/16 09:54:01;;;;;;;11.88;3.33;;;19.60;99.90;;;;;;5032911;28;20087;-82
2021/07/16 09:56:31;;;;;;;10.73;3.67;;;19.60;99.90;;;;;;5034074;28;20045;-82
2021/07/16 09:59:28;;;;;;;12.73;4.13;;;19.50;99.90;;;;;;5049848;28;20732;-84
2021/07/16 10:01:54;;;;;;;15.43;4.55;;;19.30;99.90;;;;;;5051312;28;20393;-82
2021/07/16 10:04:33;;;;;;;9.77;3.45;;;19.20;99.90;;;;;;5050911;28;20032;-83
2021/07/16 10:07:02;;;;;;;12.27;3.65;;;19.10;99.90;;;;;;5042461;28;20476;-83
2021/07/16 10:09:28;;;;;;;12.43;3.95;;;19.10;99.90;;;;;;5052356;28;20122;-82
2021/07/16 10:11:58;;;;;;;11.05;3.75;;;19.10;99.90;;;;;;5038210;28;20024;-83
2021/07/16 10:14:24;;;;;;;11.35;3.90;;;19.20;99.90;;;;;;5046947;28;20041;-84
2021/07/16 10:16:54;;;;;;;13.63;3.75;;;19.30;99.90;;;;;;5046527;28;20043;-82
2021/07/16 10:19:21;;;;;;;14.80;3.75;;;19.40;99.90;;;;;;5041777;28;20376;-83
2021/07/16 10:21:49;;;;;;;11.10;3.65;;;19.50;99.90;;;;;;5067681;28;20018;-82
2021/07/16 10:24:26;;;;;;;10.82;3.70;;;19.60;99.90;;;;;;5052970;28;20022;-82
2021/07/16 10:26:54;;;;;;;9.57;3.67;;;19.70;99.90;;;;;;5046124;28;20053;-83
2021/07/16 10:29:45;;;;;;;13.82;3.60;;;19.70;99.90;;;;;;5040617;28;20040;-82
2021/07/16 10:32:32;;;;;;;11.30;4.78;;;19.60;99.90;;;;;;5050004;28;20025;-82
2021/07/16 10:35:15;;;;;;;11.65;3.88;;;19.50;99.90;;;;;;5048248;28;20050;-83
2021/07/16 10:37:41;;;;;;;;;;;19.50;99.90;;;;;;5042276;28;20021;-83
2021/07/16 10:40:07;;;;;;;14.27;4.18;;;19.50;99.90;;;;;;5042734;28;19928;-83
2021/07/16 10:42:37;;;;;;;13.45;3.72;;;19.50;99.90;;;;;;5042934;28;20052;-83
2021/07/16 10:45:14;;;;;;;12.77;3.70;;;19.50;99.90;;;;;;5043386;28;20028;-83
2021/07/16 10:47:43;;;;;;;12.85;4.35;;;19.50;99.90;;;;;;5046851;28;20068;-83
2021/07/16 10:50:32;;;;;;;13.35;3.67;;;19.60;99.90;;;;;;5048244;28;20060;-83
2021/07/16 10:53:11;;;;;;;13.15;4.00;;;19.70;99.90;;;;;;5047228;28;20025;-83
2021/07/16 10:55:42;;;;;;;10.70;4.03;;;19.80;99.90;;;;;;5025548;28;20083;-83
2021/07/16 10:58:40;;;;;;;11.10;4.00;;;19.90;99.90;;;;;;5049250;28;20037;-83
2021/07/16 11:01:11;;;;;;;9.75;3.80;;;19.90;99.90;;;;;;5052569;28;20120;-83
2021/07/16 11:04:16;;;;;;;13.45;4.28;;;20.00;99.90;;;;;;5038611;28;20032;-81
2021/07/16 11:06:59;;;;;;;10.23;3.90;;;20.00;99.90;;;;;;5023392;28;20041;-83
2021/07/16 11:09:47;;;;;;;10.07;3.85;;;19.90;99.90;;;;;;5051857;28;20021;-81
2021/07/16 11:12:53;;;;;;;14.57;3.95;;;19.70;99.90;;;;;;5047094;28;20061;-82
2021/07/16 11:15:41;;;;;;;13.88;4.05;;;19.70;99.90;;;;;;5058372;28;20050;-82
2021/07/16 11:18:26;;;;;;;11.93;3.75;;;19.60;99.90;;;;;;5049947;28;20239;-82
2021/07/16 11:21:39;;;;;;;12.90;3.92;;;19.60;99.90;;;;;;5051623;28;20103;-83
2021/07/16 11:24:05;;;;;;;11.35;3.55;;;19.70;99.90;;;;;;5041857;28;20477;-82
2021/07/16 11:26:57;;;;;;;10.57;3.92;;;19.80;99.90;;;;;;5051688;28;20029;-82
2021/07/16 11:29:27;;;;;;;17.33;4.18;;;20.00;99.90;;;;;;5049614;28;20120;-82
2021/07/16 11:32:33;;;;;;;12.63;3.58;;;20.40;99.90;;;;;;5054337;28;20055;-82
2021/07/16 11:35:18;;;;;;;10.15;3.15;;;20.70;99.90;;;;;;5022774;28;20057;-83
2021/07/16 11:37:49;;;;;;;11.50;3.92;;;20.80;99.90;;;;;;5042195;28;20125;-83
2021/07/16 11:40:29;;;;;;;9.07;3.17;;;20.70;99.90;;;;;;5040570;28;20402;-83
2021/07/16 11:42:58;;;;;;;11.00;3.42;;;20.60;99.90;;;;;;5034414;28;20485;-82
2021/07/16 11:45:56;;;;;;;10.07;2.92;;;20.50;99.90;;;;;;5032385;28;20029;-83
2021/07/16 11:48:24;;;;;;;9.93;3.17;;;20.60;99.90;;;;;;5007657;28;20693;-83
2021/07/16 11:50:57;;;;;;;8.93;2.80;;;20.60;99.90;;;;;;5037947;28;20354;-83
2021/07/16 11:53:23;;;;;;;11.88;4.15;;;20.60;99.90;;;;;;5046076;28;20100;-82
2021/07/16 11:55:49;;;;;;;10.57;3.53;;;20.50;99.90;;;;;;5048019;28;20087;-83
2021/07/16 11:58:19;;;;;;;11.13;3.65;;;20.50;99.90;;;;;;5042508;28;20063;-83
2021/07/16 12:00:50;;;;;;;11.60;3.42;;;20.50;99.90;;;;;;5045018;28;20582;-83
2021/07/16 12:03:23;;;;;;;10.80;3.80;;;20.50;99.90;;;;;;5045651;28;20032;-82
2021/07/16 12:05:57;;;;;;;;;;;20.60;99.90;;;;;;5044522;28;20033;-83
2021/07/16 12:08:25;;;;;;;10.88;3.53;;;20.60;99.90;;;;;;5045494;28;19950;-83
2021/07/16 12:11:22;;;;;;;11.50;3.53;;;20.60;99.90;;;;;;5036504;28;20512;-83
2021/07/16 12:14:04;;;;;;;10.30;3.55;;;20.70;99.90;;;;;;5037484;28;20055;-85
2021/07/16 12:16:35;;;;;;;12.48;3.65;;;20.90;99.90;;;;;;5040927;28;20365;-84
2021/07/16 12:19:08;;;;;;;14.13;3.47;;;20.90;99.90;;;;;;5045379;28;20105;-83
2021/07/16 12:21:35;;;;;;;10.30;3.15;;;21.10;99.90;;;;;;5050947;28;20071;-84
2021/07/16 12:24:00;;;;;;;9.40;3.60;;;21.20;99.90;;;;;;5054608;28;20028;-84
2021/07/16 12:26:28;;;;;;;12.05;3.17;;;21.30;99.90;;;;;;5064977;28;20028;-82
2021/07/16 12:29:11;;;;;;;12.57;3.80;;;21.30;99.90;;;;;;5056874;28;20029;-82
2021/07/16 12:31:37;;;;;;;9.40;3.00;;;21.40;99.90;;;;;;5049478;28;20058;-81
2021/07/16 12:34:20;;;;;;;10.20;3.28;;;21.40;99.90;;;;;;5047436;28;20271;-83
2021/07/16 12:36:49;;;;;;;13.48;3.63;;;21.40;99.90;;;;;;5036560;28;20024;-84
2021/07/16 12:39:24;;;;;;;12.75;3.92;;;21.40;99.90;;;;;;5037305;28;20017;-84
2021/07/16 12:42:05;;;;;;;10.60;3.80;;;21.50;99.90;;;;;;5037721;28;20021;-84
2021/07/16 12:44:31;;;;;;;15.15;3.90;;;21.50;99.90;;;;;;5052615;28;20030;-85
2021/07/16 12:47:02;;;;;;;9.60;3.22;;;21.50;99.90;;;;;;5023428;28;20041;-85
2021/07/16 12:49:30;;;;;;;8.27;3.47;;;21.50;99.90;;;;;;5050735;28;20024;-85
2021/07/16 12:52:15;;;;;;;13.88;3.67;;;21.40;99.90;;;;;;5039113;28;20017;-84
2021/07/16 12:54:43;;;;;;;14.88;4.00;;;21.40;99.90;;;;;;5043121;28;20377;-83
2021/07/16 12:57:15;;;;;;;11.65;3.78;;;21.30;99.90;;;;;;5047683;28;20040;-84